Time;durP1;ratioP1;P1;durP2;ratioP2;P2;SDS_P1;SDS_P2;PMS_P1;PMS_P2;Temp;Humidity;BMP_temperature;BMP_pressure;BME280_temperature;BME280_humidity;BME280_pressure;Samples;Min_cycle;Max_cycle;Signal;HPM_P1;HPM_P2
2021/11/21 00:01:37;;;;;;;8.17;5.53;;;5.40;99.90;;;;;;5015198;28;20211;-66
2021/11/21 00:04:03;;;;;;;5.25;4.22;;;5.40;99.90;;;;;;5015313;28;20165;-68
2021/11/21 00:06:29;;;;;;;6.20;5.60;;;5.40;99.90;;;;;;5014670;28;20669;-66
2021/11/21 00:08:55;;;;;;;6.25;5.53;;;5.40;99.90;;;;;;5014744;28;20187;-68
2021/11/21 00:11:21;;;;;;;6.63;5.40;;;5.40;99.90;;;;;;5013592;28;20179;-66
2021/11/21 00:13:50;;;;;;;6.93;4.63;;;5.40;99.90;;;;;;5014919;28;20178;-72
2021/11/21 00:16:16;;;;;;;7.30;5.63;;;5.30;99.90;;;;;;5014628;28;20172;-68
2021/11/21 00:18:41;;;;;;;5.43;4.63;;;5.30;99.90;;;;;;5014458;28;20262;-69
2021/11/21 00:21:07;;;;;;;5.33;4.60;;;5.20;99.90;;;;;;5018671;28;20641;-66
2021/11/21 00:23:33;;;;;;;6.00;4.93;;;5.10;99.90;;;;;;5034369;28;20250;-66
2021/11/21 00:25:59;;;;;;;6.43;5.83;;;5.10;99.90;;;;;;5034324;28;20158;-68
2021/11/21 00:28:25;;;;;;;6.57;5.40;;;5.10;99.90;;;;;;5033931;28;20538;-66
2021/11/21 00:30:51;;;;;;;7.00;4.45;;;5.10;99.90;;;;;;5034495;28;20413;-68
2021/11/21 00:33:17;;;;;;;9.03;5.77;;;5.00;99.90;;;;;;5034183;28;20525;-66
2021/11/21 00:35:42;;;;;;;10.23;6.03;;;5.00;99.90;;;;;;5034258;28;20166;-69
2021/11/21 00:38:08;;;;;;;8.93;5.00;;;5.00;99.90;;;;;;5033570;28;20214;-68
2021/11/21 00:40:34;;;;;;;7.17;5.50;;;5.00;99.90;;;;;;5034022;28;20245;-70
2021/11/21 00:43:00;;;;;;;5.30;4.75;;;5.10;99.90;;;;;;5033871;28;20178;-66
2021/11/21 00:45:28;;;;;;;8.90;4.35;;;5.10;99.90;;;;;;5033906;28;20245;-69
2021/11/21 00:47:54;;;;;;;5.97;4.55;;;5.10;99.90;;;;;;5033592;28;20182;-67
2021/11/21 00:50:29;;;;;;;6.90;5.57;;;5.20;99.90;;;;;;5034027;28;20748;-68
2021/11/21 00:53:00;;;;;;;7.28;4.63;;;5.30;99.90;;;;;;5034062;28;20252;-65
2021/11/21 00:55:39;;;;;;;11.45;6.53;;;5.30;99.90;;;;;;5034023;28;20174;-68
2021/11/21 00:58:09;;;;;;;6.00;5.47;;;5.30;99.90;;;;;;5032301;28;20208;-65
2021/11/21 01:00:36;;;;;;;10.18;5.20;;;5.30;99.90;;;;;;5033011;28;20177;-68
2021/11/21 01:03:02;;;;;;;7.40;3.88;;;5.20;99.90;;;;;;5033775;28;20166;-66
2021/11/21 01:05:28;;;;;;;7.40;5.40;;;5.20;99.90;;;;;;5033486;28;20253;-69
2021/11/21 01:07:53;;;;;;;7.30;5.43;;;5.20;99.90;;;;;;5033010;28;20959;-65
2021/11/21 01:10:20;;;;;;;12.27;6.00;;;5.10;99.90;;;;;;5033424;28;20521;-68
2021/11/21 01:12:46;;;;;;;11.82;6.15;;;5.00;99.90;;;;;;5033529;28;20249;-69
2021/11/21 01:15:18;;;;;;;5.50;4.68;;;5.00;99.90;;;;;;5033401;28;20511;-69
2021/11/21 01:17:45;;;;;;;6.30;4.72;;;5.00;99.90;;;;;;5033101;28;20201;-68
2021/11/21 01:20:11;;;;;;;9.90;5.85;;;5.00;99.90;;;;;;5033317;28;20308;-67
2021/11/21 01:22:38;;;;;;;8.77;5.30;;;5.00;99.90;;;;;;5017115;28;20258;-67
2021/11/21 01:25:07;;;;;;;7.68;5.43;;;5.10;99.90;;;;;;5013600;28;20417;-67
2021/11/21 01:27:32;;;;;;;6.93;5.30;;;5.10;99.90;;;;;;5013180;28;20171;-66
2021/11/21 01:29:58;;;;;;;7.80;6.07;;;5.00;99.90;;;;;;5013383;28;20534;-65
2021/11/21 01:32:25;;;;;;;8.97;5.73;;;5.10;99.90;;;;;;5013365;28;20167;-68
2021/11/21 01:34:51;;;;;;;10.45;7.03;;;5.00;99.90;;;;;;5012179;28;20201;-68
2021/11/21 01:37:17;;;;;;;12.33;6.00;;;5.00;99.90;;;;;;5011706;28;20200;-66
2021/11/21 01:39:43;;;;;;;7.77;5.17;;;5.00;99.90;;;;;;5012122;28;20539;-67
2021/11/21 01:42:08;;;;;;;9.40;5.37;;;5.10;99.90;;;;;;5013341;28;20437;-68
2021/11/21 01:44:34;;;;;;;7.43;6.63;;;5.00;99.90;;;;;;5013273;28;20174;-66
2021/11/21 01:47:00;;;;;;;8.67;7.77;;;5.00;99.90;;;;;;5012922;28;20174;-66
2021/11/21 01:49:26;;;;;;;8.77;5.00;;;5.00;99.90;;;;;;5013439;28;20438;-68
2021/11/21 01:51:51;;;;;;;11.30;5.93;;;5.00;99.90;;;;;;5013269;28;20182;-66
2021/11/21 01:54:17;;;;;;;8.83;6.03;;;5.10;99.90;;;;;;5013336;28;20176;-67
2021/11/21 01:56:46;;;;;;;10.00;5.82;;;5.10;99.90;;;;;;5013087;28;20645;-68
2021/11/21 01:59:12;;;;;;;8.15;5.50;;;5.10;99.90;;;;;;5013130;28;20289;-67
2021/11/21 02:01:38;;;;;;;7.00;5.47;;;5.00;99.90;;;;;;5013135;28;20171;-65
2021/11/21 02:04:04;;;;;;;9.07;5.10;;;5.00;99.90;;;;;;5013266;28;20181;-68
2021/11/21 02:06:30;;;;;;;8.85;5.57;;;5.00;99.90;;;;;;5011695;28;20167;-66
2021/11/21 02:08:57;;;;;;;8.43;5.67;;;5.00;99.90;;;;;;5013870;28;20198;-67
2021/11/21 02:11:24;;;;;;;7.72;6.68;;;5.00;99.90;;;;;;5014064;28;20417;-66
2021/11/21 02:13:50;;;;;;;5.38;4.20;;;4.90;99.90;;;;;;5017098;28;20181;-68
2021/11/21 02:16:17;;;;;;;7.40;5.82;;;4.90;99.90;;;;;;5016638;28;20179;-68
2021/11/21 02:18:45;;;;;;;7.07;5.55;;;4.80;99.90;;;;;;4999428;28;20229;-68
2021/11/21 02:21:11;;;;;;;10.18;5.28;;;4.80;99.90;;;;;;5021397;28;20241;-68
2021/11/21 02:23:37;;;;;;;8.67;4.77;;;4.80;99.90;;;;;;5036915;28;20217;-67
2021/11/21 02:26:03;;;;;;;4.27;3.47;;;4.80;99.90;;;;;;5036775;28;20193;-68
2021/11/21 02:28:29;;;;;;;5.33;4.40;;;4.80;99.90;;;;;;5036386;28;20694;-66
2021/11/21 02:30:54;;;;;;;6.43;4.72;;;4.80;99.90;;;;;;5036595;28;20408;-69
2021/11/21 02:33:20;;;;;;;6.00;4.43;;;4.70;99.90;;;;;;5036514;28;20514;-69
2021/11/21 02:35:49;;;;;;;5.80;3.77;;;4.70;99.90;;;;;;5036818;28;20181;-69
2021/11/21 02:38:17;;;;;;;6.55;5.60;;;4.60;99.90;;;;;;5035887;28;20555;-68
2021/11/21 02:40:43;;;;;;;6.70;4.93;;;4.60;99.90;;;;;;5036426;28;20216;-69
2021/11/21 02:43:09;;;;;;;6.35;5.50;;;4.60;99.90;;;;;;5036197;28;20323;-66
2021/11/21 02:45:35;;;;;;;9.20;5.90;;;4.60;99.90;;;;;;5036501;28;20664;-68
2021/11/21 02:48:01;;;;;;;4.60;4.20;;;4.60;99.90;;;;;;5034527;28;20795;-67
2021/11/21 02:50:29;;;;;;;9.77;4.90;;;4.60;99.90;;;;;;5034887;28;20177;-68
2021/11/21 02:52:56;;;;;;;8.25;5.35;;;4.60;99.90;;;;;;5036088;28;20185;-66
2021/11/21 02:55:35;;;;;;;6.22;4.15;;;4.60;99.90;;;;;;5036080;28;20158;-69
2021/11/21 02:58:02;;;;;;;7.95;5.70;;;4.60;99.90;;;;;;5034260;28;20669;-66
2021/11/21 03:00:28;;;;;;;10.77;5.45;;;4.60;99.90;;;;;;5036243;28;20183;-68
2021/11/21 03:02:54;;;;;;;8.60;4.95;;;4.60;99.90;;;;;;5036132;28;20702;-66
2021/11/21 03:05:20;;;;;;;9.53;3.77;;;4.60;99.90;;;;;;5036085;28;20178;-67
2021/11/21 03:07:48;;;;;;;10.27;5.63;;;4.60;99.90;;;;;;5035552;28;20445;-66
2021/11/21 03:10:18;;;;;;;11.25;6.90;;;4.60;99.90;;;;;;5036023;28;20166;-71
2021/11/21 03:12:49;;;;;;;7.75;4.95;;;4.60;99.90;;;;;;5035873;28;20205;-68
2021/11/21 03:15:16;;;;;;;8.35;4.63;;;4.60;99.90;;;;;;5036012;28;20536;-69
2021/11/21 03:17:43;;;;;;;7.25;6.10;;;4.60;99.90;;;;;;5035611;28;20502;-66
2021/11/21 03:20:13;;;;;;;8.13;5.70;;;4.70;99.90;;;;;;5035595;28;20194;-66
2021/11/21 03:22:40;;;;;;;8.00;6.60;;;4.70;99.90;;;;;;5034773;28;20249;-67
2021/11/21 03:25:07;;;;;;;10.07;6.25;;;4.70;99.90;;;;;;5035519;28;20240;-66
2021/11/21 03:27:32;;;;;;;7.70;5.47;;;4.70;99.90;;;;;;5035118;28;20669;-68
2021/11/21 03:29:58;;;;;;;10.07;6.20;;;4.70;99.90;;;;;;5035595;28;20198;-67
2021/11/21 03:32:24;;;;;;;11.77;5.67;;;4.70;99.90;;;;;;5035628;28;20221;-67
2021/11/21 03:34:50;;;;;;;8.20;5.23;;;4.70;99.90;;;;;;5035779;28;20174;-65
2021/11/21 03:37:16;;;;;;;5.60;4.75;;;4.70;99.90;;;;;;5035026;28;20238;-69
2021/11/21 03:39:42;;;;;;;11.18;5.90;;;4.70;99.90;;;;;;5035231;28;20206;-66
2021/11/21 03:42:08;;;;;;;6.07;5.43;;;4.80;99.90;;;;;;5035682;28;20177;-66
2021/11/21 03:44:34;;;;;;;5.72;5.22;;;4.80;99.90;;;;;;5035505;28;20158;-67
2021/11/21 03:47:00;;;;;;;10.70;7.30;;;4.70;99.90;;;;;;5035064;28;20162;-68
2021/11/21 03:49:26;;;;;;;6.90;5.10;;;4.70;99.90;;;;;;5035427;28;20199;-66
2021/11/21 03:51:51;;;;;;;9.70;5.30;;;4.70;99.90;;;;;;5035284;28;20406;-67
2021/11/21 03:54:17;;;;;;;7.53;6.70;;;4.70;99.90;;;;;;5035764;28;20417;-68
2021/11/21 03:56:43;;;;;;;6.63;4.73;;;4.70;99.90;;;;;;5037401;28;20181;-68
2021/11/21 03:59:09;;;;;;;8.33;7.03;;;4.70;99.90;;;;;;5039864;28;20783;-66
2021/11/21 04:01:34;;;;;;;5.13;4.47;;;4.70;99.90;;;;;;5041472;28;20173;-65
2021/11/21 04:04:00;;;;;;;8.17;6.47;;;4.70;99.90;;;;;;5042694;28;20172;-67
2021/11/21 04:06:26;;;;;;;11.77;5.13;;;4.70;99.90;;;;;;5041480;28;20648;-66
2021/11/21 04:08:52;;;;;;;10.50;5.27;;;4.70;99.90;;;;;;5036951;28;20192;-70
2021/11/21 04:11:18;;;;;;;8.27;4.80;;;4.70;99.90;;;;;;5040917;28;20408;-66
2021/11/21 04:13:44;;;;;;;6.60;5.63;;;4.70;99.90;;;;;;5041727;28;20177;-69
2021/11/21 04:16:09;;;;;;;10.73;6.90;;;4.80;99.90;;;;;;5034603;28;20176;-66
2021/11/21 04:18:35;;;;;;;8.17;5.73;;;4.80;99.90;;;;;;5034248;28;20539;-70
2021/11/21 04:21:01;;;;;;;9.93;5.43;;;4.80;99.90;;;;;;5031496;28;20913;-67
2021/11/21 04:23:30;;;;;;;5.47;4.70;;;4.80;99.90;;;;;;5014750;28;20229;-70
2021/11/21 04:25:57;;;;;;;7.80;5.95;;;4.80;99.90;;;;;;5013443;28;20179;-67
2021/11/21 04:28:22;;;;;;;8.27;4.93;;;4.90;99.90;;;;;;5015463;28;20205;-69
2021/11/21 04:30:48;;;;;;;9.37;5.70;;;4.80;99.90;;;;;;5014731;28;20172;-69
2021/11/21 04:33:14;;;;;;;9.73;5.17;;;4.80;99.90;;;;;;5014876;28;20420;-67
2021/11/21 04:35:40;;;;;;;9.77;5.00;;;4.80;99.90;;;;;;5014728;28;20660;-71
2021/11/21 04:38:05;;;;;;;8.83;5.57;;;4.90;99.90;;;;;;5013953;28;20207;-69
2021/11/21 04:40:31;;;;;;;7.67;6.43;;;4.80;99.90;;;;;;5014506;28;20163;-70
2021/11/21 04:42:57;;;;;;;11.98;6.03;;;4.80;99.90;;;;;;5014331;28;20170;-66
2021/11/21 04:45:23;;;;;;;8.30;6.30;;;4.80;99.90;;;;;;5014427;28;20530;-69
2021/11/21 04:47:48;;;;;;;7.17;4.03;;;4.70;99.90;;;;;;5012610;28;20187;-67
2021/11/21 04:50:15;;;;;;;8.40;4.90;;;4.70;99.90;;;;;;5014365;28;20213;-68
2021/11/21 04:52:41;;;;;;;5.75;5.15;;;4.70;99.90;;;;;;5014211;28;20179;-68
2021/11/21 04:55:09;;;;;;;6.30;4.75;;;4.60;99.90;;;;;;5014452;28;20171;-69
2021/11/21 04:57:39;;;;;;;7.13;5.60;;;4.60;99.90;;;;;;5013601;28;20229;-67
2021/11/21 05:00:07;;;;;;;6.00;4.90;;;4.60;99.90;;;;;;5014021;28;20205;-67
2021/11/21 05:02:33;;;;;;;4.82;3.20;;;4.60;99.90;;;;;;5012960;28;20187;-66
2021/11/21 05:04:58;;;;;;;6.37;4.80;;;4.60;99.90;;;;;;5013986;28;20167;-66
2021/11/21 05:07:24;;;;;;;8.43;5.03;;;4.60;99.90;;;;;;5012292;28;20170;-68
2021/11/21 05:09:49;;;;;;;6.50;5.80;;;4.60;99.90;;;;;;5014058;28;20257;-66
2021/11/21 05:12:15;;;;;;;5.10;4.23;;;4.60;99.90;;;;;;5013899;28;20210;-68
2021/11/21 05:14:41;;;;;;;9.27;6.40;;;4.60;99.90;;;;;;5013884;28;20191;-65
2021/11/21 05:17:07;;;;;;;11.07;5.13;;;4.60;99.90;;;;;;5013501;28;20405;-68
2021/11/21 05:19:32;;;;;;;5.03;3.77;;;4.50;99.90;;;;;;5013574;28;20270;-66
2021/11/21 05:21:58;;;;;;;5.70;4.40;;;4.50;99.90;;;;;;5024578;28;20566;-66
2021/11/21 05:24:24;;;;;;;8.57;4.93;;;4.50;99.90;;;;;;5033608;28;20682;-66
2021/11/21 05:26:51;;;;;;;9.00;6.67;;;4.50;99.90;;;;;;5033011;28;20166;-68
2021/11/21 05:29:18;;;;;;;8.63;5.00;;;4.50;99.90;;;;;;5033322;28;20194;-68
2021/11/21 05:31:43;;;;;;;7.30;5.75;;;4.40;99.90;;;;;;5033319;28;20545;-69
2021/11/21 05:34:09;;;;;;;8.47;7.33;;;4.40;99.90;;;;;;5033437;28;20166;-67
2021/11/21 05:36:35;;;;;;;5.70;5.10;;;4.40;99.90;;;;;;5032911;28;20174;-67
2021/11/21 05:39:00;;;;;;;6.03;4.03;;;4.40;99.90;;;;;;5033095;28;20202;-70
2021/11/21 05:41:26;;;;;;;7.93;4.70;;;4.40;99.90;;;;;;5033532;28;20507;-67
2021/11/21 05:43:52;;;;;;;8.30;5.80;;;4.40;99.90;;;;;;5033083;28;20167;-68
2021/11/21 05:46:17;;;;;;;7.20;5.30;;;4.40;99.90;;;;;;5032527;28;20576;-65
2021/11/21 05:48:43;;;;;;;6.77;4.63;;;4.40;99.90;;;;;;5032845;28;20596;-69
2021/11/21 05:51:09;;;;;;;6.93;5.20;;;4.30;99.90;;;;;;5033146;28;20173;-67
2021/11/21 05:53:34;;;;;;;5.43;3.90;;;4.40;99.90;;;;;;5033121;28;20258;-69
2021/11/21 05:56:00;;;;;;;5.07;3.73;;;4.40;99.90;;;;;;5033198;28;20235;-68
2021/11/21 05:58:26;;;;;;;4.67;4.23;;;4.40;99.90;;;;;;5032618;28;20296;-67
2021/11/21 06:00:52;;;;;;;6.83;4.93;;;4.40;99.90;;;;;;5033198;28;20630;-68
2021/11/21 06:03:18;;;;;;;8.38;7.05;;;4.40;99.90;;;;;;5033071;28;20525;-66
2021/11/21 06:05:44;;;;;;;7.30;6.15;;;4.30;99.90;;;;;;5033090;28;20177;-68
2021/11/21 06:08:10;;;;;;;5.00;3.93;;;4.30;99.90;;;;;;5032560;28;20190;-66
2021/11/21 06:10:35;;;;;;;5.97;5.20;;;4.40;99.90;;;;;;5032815;28;20403;-67
2021/11/21 06:13:01;;;;;;;4.47;3.53;;;4.30;99.90;;;;;;5031606;28;20193;-67
2021/11/21 06:15:27;;;;;;;4.83;4.27;;;4.30;99.90;;;;;;5032855;28;20590;-69
2021/11/21 06:17:53;;;;;;;8.03;3.90;;;4.30;99.90;;;;;;5032385;28;20981;-65
2021/11/21 06:20:18;;;;;;;9.53;4.70;;;4.30;99.90;;;;;;5031635;28;20294;-66
2021/11/21 06:22:44;;;;;;;6.40;4.13;;;4.30;99.90;;;;;;5015578;28;20178;-67
2021/11/21 06:25:11;;;;;;;4.43;4.00;;;4.30;99.90;;;;;;5013098;28;20222;-67
2021/11/21 06:27:37;;;;;;;4.72;4.10;;;4.30;99.90;;;;;;5012697;28;20515;-66
2021/11/21 06:30:05;;;;;;;7.00;4.55;;;4.30;99.90;;;;;;5012964;28;20170;-67
2021/11/21 06:32:31;;;;;;;6.00;4.15;;;4.30;99.90;;;;;;5012976;28;20257;-68
2021/11/21 06:34:56;;;;;;;5.83;4.37;;;4.30;99.90;;;;;;5013053;28;20647;-68
2021/11/21 06:37:22;;;;;;;4.27;3.83;;;4.30;99.90;;;;;;5012763;28;20437;-69
2021/11/21 06:39:48;;;;;;;6.03;3.77;;;4.30;99.90;;;;;;5013034;28;20237;-66
2021/11/21 06:42:14;;;;;;;7.43;4.93;;;4.30;99.90;;;;;;5012977;28;20174;-68
2021/11/21 06:44:41;;;;;;;9.02;5.93;;;4.30;99.90;;;;;;5012798;28;20168;-65
2021/11/21 06:47:06;;;;;;;6.55;4.18;;;4.30;99.90;;;;;;5012508;28;20167;-69
2021/11/21 06:49:32;;;;;;;4.90;4.27;;;4.30;99.90;;;;;;5013010;28;20195;-65
2021/11/21 06:51:58;;;;;;;6.10;4.40;;;4.30;99.90;;;;;;5012764;28;20542;-69
2021/11/21 06:54:24;;;;;;;5.03;3.50;;;4.30;99.90;;;;;;5012902;28;20171;-67
2021/11/21 06:56:50;;;;;;;7.80;5.83;;;4.30;99.90;;;;;;5012577;28;20178;-68
2021/11/21 06:59:16;;;;;;;6.07;4.40;;;4.30;99.90;;;;;;5015916;28;20199;-69
2021/11/21 07:01:42;;;;;;;5.40;4.90;;;4.30;99.90;;;;;;5016225;28;20469;-66
2021/11/21 07:04:08;;;;;;;3.93;3.37;;;4.40;99.90;;;;;;5015571;28;20180;-68
2021/11/21 07:06:37;;;;;;;4.57;4.15;;;4.50;99.90;;;;;;5015855;28;20398;-68
2021/11/21 07:09:05;;;;;;;5.60;4.60;;;4.50;99.90;;;;;;5016057;28;20187;-68
2021/11/21 07:11:31;;;;;;;8.55;4.93;;;4.50;99.90;;;;;;5016196;28;20173;-66
2021/11/21 07:13:57;;;;;;;6.20;3.93;;;4.60;99.90;;;;;;5016182;28;20184;-67
2021/11/21 07:16:23;;;;;;;4.73;4.20;;;4.50;99.90;;;;;;5015891;28;20814;-68
2021/11/21 07:18:49;;;;;;;7.00;4.40;;;4.50;99.90;;;;;;5015630;28;20581;-68
2021/11/21 07:21:15;;;;;;;6.40;5.73;;;4.50;99.90;;;;;;5021009;28;20169;-67
2021/11/21 07:23:41;;;;;;;9.73;4.57;;;4.50;99.90;;;;;;5035814;28;20929;-70
2021/11/21 07:26:06;;;;;;;7.77;5.40;;;4.40;99.90;;;;;;5035694;28;20166;-64
2021/11/21 07:28:32;;;;;;;4.97;4.50;;;4.40;99.90;;;;;;5035041;28;20464;-70
2021/11/21 07:30:58;;;;;;;5.40;3.20;;;4.40;99.90;;;;;;5035581;28;20562;-66
2021/11/21 07:33:24;;;;;;;8.70;5.10;;;4.50;99.90;;;;;;5035634;28;20176;-68
2021/11/21 07:35:52;;;;;;;8.80;5.75;;;4.60;99.90;;;;;;5034580;28;20301;-66
2021/11/21 07:38:19;;;;;;;6.50;5.05;;;4.50;99.90;;;;;;5034965;28;20206;-70
2021/11/21 07:40:45;;;;;;;14.25;5.25;;;4.50;99.90;;;;;;5035419;28;20184;-70
2021/11/21 07:43:11;;;;;;;8.47;4.00;;;4.50;99.90;;;;;;5035365;28;20170;-67
2021/11/21 07:45:36;;;;;;;5.93;4.47;;;4.50;99.90;;;;;;5035205;28;20763;-70
2021/11/21 07:48:03;;;;;;;6.87;5.50;;;4.50;99.90;;;;;;5034909;28;20847;-69
2021/11/21 07:50:28;;;;;;;6.85;5.40;;;4.50;99.90;;;;;;5035205;28;20199;-69
2021/11/21 07:52:54;;;;;;;7.30;4.93;;;4.50;99.90;;;;;;5035261;28;20206;-66
2021/11/21 07:55:19;;;;;;;7.43;5.17;;;4.50;99.90;;;;;;5035331;28;20162;-69
2021/11/21 07:57:45;;;;;;;11.00;3.67;;;4.50;99.90;;;;;;5034719;28;20192;-68
2021/11/21 08:00:12;;;;;;;5.93;4.03;;;4.60;99.90;;;;;;5034988;28;20252;-70
2021/11/21 08:02:39;;;;;;;6.43;5.30;;;4.60;99.90;;;;;;5035284;28;20471;-67
2021/11/21 08:05:06;;;;;;;5.85;5.25;;;4.50;99.90;;;;;;5036743;28;20502;-67
2021/11/21 08:07:33;;;;;;;10.27;6.43;;;4.40;99.90;;;;;;5034497;28;20561;-67
2021/11/21 08:09:59;;;;;;;8.18;5.78;;;4.50;99.90;;;;;;5034410;28;20251;-67
2021/11/21 08:12:24;;;;;;;9.00;5.35;;;4.50;99.90;;;;;;5034714;28;20579;-67
2021/11/21 08:14:50;;;;;;;8.87;5.17;;;4.50;99.90;;;;;;5034556;28;20260;-67
2021/11/21 08:17:17;;;;;;;6.73;4.67;;;4.40;99.90;;;;;;5034220;28;20174;-68
2021/11/21 08:19:43;;;;;;;7.82;4.88;;;4.50;99.90;;;;;;5034459;28;20203;-66
2021/11/21 08:22:09;;;;;;;9.35;6.10;;;4.50;99.90;;;;;;5021913;28;20316;-68
2021/11/21 08:24:35;;;;;;;5.80;5.30;;;4.50;99.90;;;;;;5015279;28;20175;-68
2021/11/21 08:27:01;;;;;;;9.60;5.10;;;4.40;99.90;;;;;;5033597;28;20186;-69
2021/11/21 08:29:27;;;;;;;5.20;4.70;;;4.40;99.90;;;;;;5032302;28;20510;-67
2021/11/21 08:31:52;;;;;;;5.77;5.03;;;4.50;99.90;;;;;;5034367;28;20243;-66
2021/11/21 08:34:19;;;;;;;7.67;5.70;;;4.50;99.90;;;;;;5034313;28;20201;-70
2021/11/21 08:36:44;;;;;;;6.18;5.68;;;4.50;99.90;;;;;;5034005;28;20178;-69
2021/11/21 08:39:10;;;;;;;6.93;5.43;;;4.50;99.90;;;;;;5032735;28;20645;-68
2021/11/21 08:41:36;;;;;;;5.00;4.37;;;4.50;99.90;;;;;;5033967;28;20178;-68
2021/11/21 08:44:02;;;;;;;6.30;4.90;;;4.50;99.90;;;;;;5034082;28;20400;-68
2021/11/21 08:46:28;;;;;;;14.40;5.60;;;4.50;99.90;;;;;;5033637;28;20799;-68
2021/11/21 08:48:54;;;;;;;12.53;5.77;;;4.60;99.90;;;;;;5030611;28;20499;-68
2021/11/21 08:51:21;;;;;;;11.38;7.07;;;4.70;99.90;;;;;;5033992;28;20576;-65
2021/11/21 08:53:47;;;;;;;15.20;8.55;;;4.70;99.90;;;;;;5033742;28;20261;-68
2021/11/21 08:56:14;;;;;;;12.93;7.37;;;4.70;99.90;;;;;;5033638;28;20190;-67
2021/11/21 08:58:39;;;;;;;15.13;6.43;;;4.70;99.90;;;;;;5033194;28;20469;-69
2021/11/21 09:01:05;;;;;;;11.90;5.47;;;4.80;99.90;;;;;;5033719;28;20181;-69
2021/11/21 09:03:31;;;;;;;13.27;6.30;;;4.80;99.90;;;;;;5033623;28;20163;-69
2021/11/21 09:05:57;;;;;;;12.90;7.20;;;4.80;99.90;;;;;;5033264;28;20227;-68
2021/11/21 09:08:25;;;;;;;11.95;6.05;;;4.80;99.90;;;;;;5033044;28;20190;-69
2021/11/21 09:10:52;;;;;;;12.68;6.25;;;4.90;99.90;;;;;;5033513;28;20255;-70
2021/11/21 09:13:18;;;;;;;6.57;4.65;;;5.00;99.90;;;;;;5033389;28;20170;-68
2021/11/21 09:15:44;;;;;;;10.82;6.90;;;5.00;99.90;;;;;;5033364;28;20203;-66
2021/11/21 09:18:10;;;;;;;6.03;5.38;;;5.10;99.90;;;;;;5033154;28;20272;-70
2021/11/21 09:20:36;;;;;;;6.00;4.53;;;5.10;99.90;;;;;;5031461;28;20295;-69
2021/11/21 09:23:03;;;;;;;5.18;4.68;;;5.00;99.90;;;;;;5013455;28;20168;-69
2021/11/21 09:25:30;;;;;;;6.03;3.88;;;5.00;99.90;;;;;;5013567;28;20183;-69
2021/11/21 09:27:56;;;;;;;7.07;5.28;;;5.00;99.90;;;;;;5013310;28;20190;-68
2021/11/21 09:30:23;;;;;;;6.25;4.40;;;5.00;99.90;;;;;;5013261;28;20174;-72
2021/11/21 09:32:51;;;;;;;8.13;5.55;;;5.10;99.90;;;;;;5013394;28;20179;-69
2021/11/21 09:35:18;;;;;;;5.20;4.00;;;5.10;99.90;;;;;;5013589;28;20183;-70
2021/11/21 09:37:43;;;;;;;8.30;5.20;;;5.20;99.90;;;;;;5011528;28;20216;-68
2021/11/21 09:40:12;;;;;;;7.15;6.05;;;5.30;99.90;;;;;;5012612;28;20250;-71
2021/11/21 09:42:38;;;;;;;7.45;4.90;;;5.30;99.90;;;;;;5013530;28;20173;-70
2021/11/21 09:45:07;;;;;;;4.07;3.45;;;5.40;99.90;;;;;;5013088;28;20225;-71
2021/11/21 09:47:33;;;;;;;9.45;4.22;;;5.40;99.90;;;;;;5012420;28;20183;-70
2021/11/21 09:50:10;;;;;;;3.43;3.13;;;5.40;99.90;;;;;;5012126;28;20635;-70
2021/11/21 09:52:36;;;;;;;10.20;5.53;;;5.50;99.90;;;;;;5011980;28;20198;-69
2021/11/21 09:55:06;;;;;;;7.40;4.40;;;5.40;99.90;;;;;;5011800;28;20557;-69
2021/11/21 09:57:32;;;;;;;8.02;4.93;;;5.40;99.90;;;;;;5011361;28;20685;-69
2021/11/21 10:00:09;;;;;;;5.25;3.75;;;5.40;99.90;;;;;;5011797;28;20202;-68
2021/11/21 10:02:38;;;;;;;7.15;5.78;;;5.50;99.90;;;;;;5011231;28;20191;-68
2021/11/21 10:05:08;;;;;;;6.47;4.93;;;5.50;99.90;;;;;;5011028;28;20171;-70
2021/11/21 10:07:36;;;;;;;6.70;4.88;;;5.50;99.90;;;;;;5010773;28;20217;-69
2021/11/21 10:10:05;;;;;;;7.88;4.82;;;5.50;99.90;;;;;;5011200;28;20662;-69
2021/11/21 10:12:37;;;;;;;9.32;4.63;;;5.50;99.90;;;;;;5011091;28;20191;-67
2021/11/21 10:15:09;;;;;;;7.18;4.85;;;5.40;99.90;;;;;;5011180;28;20181;-70
2021/11/21 10:17:37;;;;;;;7.45;4.88;;;5.40;99.90;;;;;;5011505;28;20206;-67
2021/11/21 10:20:15;;;;;;;9.90;4.72;;;5.40;99.90;;;;;;5012878;28;20297;-69
2021/11/21 10:23:01;;;;;;;4.90;3.92;;;5.30;99.90;;;;;;5029907;28;20253;-67
2021/11/21 10:25:32;;;;;;;7.03;4.60;;;5.30;99.90;;;;;;5031609;28;20174;-69
2021/11/21 10:28:12;;;;;;;6.72;5.57;;;5.20;99.90;;;;;;5032179;28;20220;-68
2021/11/21 10:31:15;;;;;;;10.77;4.43;;;5.30;99.90;;;;;;5032719;28;20170;-68
2021/11/21 10:33:48;;;;;;;4.07;3.75;;;5.20;99.90;;;;;;5014669;28;20180;-69
2021/11/21 10:36:29;;;;;;;8.05;5.40;;;5.10;99.90;;;;;;5033169;28;20543;-70
2021/11/21 10:39:01;;;;;;;9.57;4.65;;;5.10;99.90;;;;;;5036391;28;20301;-69
2021/11/21 10:41:29;;;;;;;12.55;4.70;;;5.10;99.90;;;;;;5036616;28;20165;-66
2021/11/21 10:44:24;;;;;;;14.15;5.70;;;5.00;99.90;;;;;;5035401;28;20776;-69
2021/11/21 10:46:56;;;;;;;7.80;3.92;;;5.00;99.90;;;;;;5031458;28;20270;-71
2021/11/21 10:49:36;;;;;;;7.55;5.40;;;5.00;99.90;;;;;;5035064;28;20661;-69
2021/11/21 10:52:08;;;;;;;11.85;5.00;;;5.00;99.90;;;;;;5036287;28;20181;-70
2021/11/21 10:54:50;;;;;;;5.70;4.43;;;5.00;99.90;;;;;;5036289;28;20163;-69
2021/11/21 10:57:34;;;;;;;5.35;4.32;;;5.00;99.90;;;;;;5034746;28;20679;-68
2021/11/21 11:00:06;;;;;;;6.57;5.90;;;5.00;99.90;;;;;;5036030;28;20204;-69
2021/11/21 11:02:40;;;;;;;4.82;3.70;;;5.00;99.90;;;;;;5036201;28;20171;-66
2021/11/21 11:05:13;;;;;;;6.07;4.60;;;5.00;99.90;;;;;;5036046;28;20189;-68
2021/11/21 11:08:03;;;;;;;8.23;4.03;;;5.00;99.90;;;;;;5035630;28;20166;-68
2021/11/21 11:10:30;;;;;;;10.55;4.10;;;5.10;99.90;;;;;;5036085;28;20505;-69
2021/11/21 11:13:06;;;;;;;3.95;3.63;;;5.10;99.90;;;;;;5035916;28;20171;-69
2021/11/21 11:15:42;;;;;;;5.80;2.85;;;5.10;99.90;;;;;;5035941;28;20229;-70
2021/11/21 11:18:11;;;;;;;5.20;3.45;;;5.10;99.90;;;;;;5035314;28;20213;-66
2021/11/21 11:20:53;;;;;;;8.80;3.67;;;5.00;99.90;;;;;;5034379;28;20228;-68
2021/11/21 11:23:21;;;;;;;4.45;3.05;;;5.10;99.90;;;;;;5016035;28;20535;-70
2021/11/21 11:25:49;;;;;;;3.05;2.75;;;5.10;99.90;;;;;;5016164;28;20519;-68
2021/11/21 11:28:20;;;;;;;4.88;2.85;;;5.10;99.90;;;;;;5015393;28;20213;-69
2021/11/21 11:30:46;;;;;;;5.38;3.55;;;5.10;99.90;;;;;;5015914;28;20201;-70
2021/11/21 11:33:21;;;;;;;7.68;4.15;;;5.10;99.90;;;;;;5015833;28;20184;-69
2021/11/21 11:35:49;;;;;;;4.63;3.05;;;5.10;99.90;;;;;;5015640;28;20633;-68
2021/11/21 11:38:22;;;;;;;3.75;2.65;;;5.10;99.90;;;;;;5015114;28;20302;-69
2021/11/21 11:40:52;;;;;;;4.88;4.43;;;5.00;99.90;;;;;;5015798;28;20163;-68
2021/11/21 11:43:23;;;;;;;5.35;4.03;;;5.00;99.90;;;;;;5014772;28;20234;-70
2021/11/21 11:45:57;;;;;;;4.57;3.63;;;5.00;99.90;;;;;;5014068;28;20172;-67
2021/11/21 11:48:52;;;;;;;3.40;2.65;;;5.10;99.90;;;;;;5015100;28;20290;-69
2021/11/21 11:51:20;;;;;;;4.75;3.35;;;5.00;99.90;;;;;;5015599;28;20625;-68
2021/11/21 11:53:48;;;;;;;4.18;3.80;;;5.10;99.90;;;;;;5015296;28;20577;-70
2021/11/21 11:56:22;;;;;;;4.70;3.70;;;5.10;99.90;;;;;;5015194;28;20528;-68
2021/11/21 11:59:06;;;;;;;4.30;3.15;;;5.20;99.90;;;;;;5015173;28;20195;-71
2021/11/21 12:01:31;;;;;;;4.32;2.70;;;5.30;99.90;;;;;;5015003;28;20246;-69
2021/11/21 12:03:58;;;;;;;6.70;3.70;;;5.20;99.90;;;;;;5015091;28;20194;-69
2021/11/21 12:06:36;;;;;;;5.55;3.85;;;5.20;99.90;;;;;;5013475;28;20206;-68
2021/11/21 12:09:21;;;;;;;4.57;2.78;;;5.30;99.90;;;;;;5013720;28;20222;-70
2021/11/21 12:12:17;;;;;;;4.65;3.17;;;5.40;99.90;;;;;;5013706;28;20178;-69
2021/11/21 12:14:46;;;;;;;4.50;3.85;;;5.40;99.90;;;;;;5012852;28;20191;-68
2021/11/21 12:17:19;;;;;;;5.18;4.00;;;5.50;99.90;;;;;;5014462;28;20167;-70
2021/11/21 12:19:49;;;;;;;5.90;4.30;;;5.50;99.90;;;;;;5014969;28;20209;-70
2021/11/21 12:22:24;;;;;;;5.65;4.47;;;5.60;99.90;;;;;;5028223;28;20186;-70
2021/11/21 12:24:54;;;;;;;5.45;4.47;;;5.70;99.90;;;;;;5034973;28;20166;-70
2021/11/21 12:27:27;;;;;;;8.25;3.50;;;5.70;99.90;;;;;;5034246;28;20182;-69
2021/11/21 12:30:11;;;;;;;4.80;3.28;;;5.80;99.90;;;;;;5034580;28;20177;-69
2021/11/21 12:32:46;;;;;;;3.53;3.17;;;5.90;99.90;;;;;;5034389;28;20168;-67
2021/11/21 12:35:25;;;;;;;7.40;4.65;;;5.90;99.90;;;;;;5034511;28;20176;-69
2021/11/21 12:37:52;;;;;;;6.50;4.95;;;5.90;99.90;;;;;;5033820;28;20631;-67
2021/11/21 12:40:55;;;;;;;5.97;4.97;;;5.90;99.90;;;;;;5034585;28;20577;-70
2021/11/21 12:43:23;;;;;;;5.40;4.00;;;5.90;99.90;;;;;;5012309;28;20205;-71
2021/11/21 12:45:53;;;;;;;9.27;5.75;;;5.90;99.90;;;;;;5030003;28;20279;-69
2021/11/21 12:48:22;;;;;;;7.03;5.13;;;5.90;99.90;;;;;;5034038;28;20279;-69
2021/11/21 12:51:03;;;;;;;6.53;4.43;;;5.90;99.90;;;;;;5034098;28;20228;-69
2021/11/21 12:53:31;;;;;;;3.85;3.00;;;5.90;99.90;;;;;;5034146;28;20169;-70
2021/11/21 12:56:06;;;;;;;5.43;4.57;;;5.90;99.90;;;;;;5033126;28;20188;-69
2021/11/21 12:58:44;;;;;;;4.93;3.40;;;6.00;99.90;;;;;;5033492;28;20191;-70
2021/11/21 13:01:12;;;;;;;8.05;6.10;;;6.00;99.90;;;;;;5033903;28;20253;-67